Sweeney, South Dakota
Current Conditions -  °F | °C
As of 6:53 AM on Monday 22 Dec 2014 (Local Time) from KPIR Reporting Station
Overcast Overcast  
Wind Chill: 29°   Ceiling: 2400
Heat Index: 38°   Visibility: 10mi
Dew Point: 34°   Wind: 16mph
Humidity: 86%   Direction: 300°WNW
Pressure: 29.44"   Gusts: NA
Location:  43.909°N, 100.128°W
Report Text: KPIR 221253Z AUTO 30014KT 10SM OVC024 03/01 A2944 RMK AO2 SLP982 T00330011
Loading
Personal Weather Stations






























Interactive Weather Map New forecast layout! Learn more

10-Day Weather Forecast

Advertisements
Track Severe Weather on mobile